Maple Grove Park, Pennsylvania
Current Conditions -  °F | °C
As of 2:54 PM on Monday 24 Nov 2014 (Local Time) from KRDG Reporting Station
Scattered Clouds Scattered Clouds  
Wind Chill: 68°   Ceiling: Unl
Heat Index: 68°   Visibility: 10mi
Dew Point: 54°   Wind: 17mph
Humidity: 61%   Direction: 190°S
Pressure: 29.55"   Gusts: 26mph
Location:  40.2411°N, 75.9752°W
Report Text: KRDG 241954Z 19015G23KT 10SM SCT033 20/12 A2955 RMK AO2 PK WND 20031/1912 SLP012 T02000122
Loading
Personal Weather Stations






























Interactive Weather Map New forecast layout! Learn more

10-Day Weather Forecast

Advertisements
Track Severe Weather on mobile